createdAt,value
2022-08-10T00:01:53.794Z,19.40
2022-08-10T00:04:24.023Z,19.50
2022-08-10T00:06:54.591Z,19.50
2022-08-10T00:09:24.459Z,19.50
2022-08-10T00:11:53.015Z,19.50
2022-08-10T00:14:22.891Z,19.60
2022-08-10T00:16:51.272Z,19.60
2022-08-10T00:19:19.625Z,19.60
2022-08-10T00:21:48.661Z,19.60
2022-08-10T00:24:17.398Z,19.60
2022-08-10T00:27:53.121Z,19.70
2022-08-10T00:29:36.151Z,19.70
2022-08-10T00:32:05.022Z,19.70
2022-08-10T00:34:34.565Z,19.70
2022-08-10T00:37:03.299Z,19.70
2022-08-10T00:39:36.605Z,19.70
2022-08-10T00:42:09.015Z,19.70
2022-08-10T00:44:42.174Z,19.70
2022-08-10T00:47:35.983Z,19.70
2022-08-10T00:50:00.316Z,19.70
2022-08-10T00:52:31.124Z,19.70
2022-08-10T00:55:00.491Z,19.60
2022-08-10T00:57:29.685Z,19.60
2022-08-10T01:00:00.559Z,19.50
2022-08-10T01:02:32.526Z,19.50
2022-08-10T01:05:06.397Z,19.50
2022-08-10T01:07:52.402Z,19.50
2022-08-10T01:10:48.412Z,19.50
2022-08-10T01:13:23.487Z,19.50
2022-08-10T01:16:01.455Z,19.50
2022-08-10T01:18:41.659Z,19.40
2022-08-10T01:21:56.972Z,19.40
2022-08-10T01:25:04.903Z,19.40
2022-08-10T01:27:38.287Z,19.40
2022-08-10T01:30:10.590Z,19.30
2022-08-10T01:32:48.976Z,19.30
2022-08-10T01:35:25.979Z,19.30
2022-08-10T01:38:05.096Z,19.30
2022-08-10T01:40:38.275Z,19.30
2022-08-10T01:43:11.041Z,19.30
2022-08-10T01:45:48.293Z,19.20
2022-08-10T01:48:30.886Z,19.20
2022-08-10T01:51:10.280Z,19.20
2022-08-10T01:53:47.126Z,19.20
2022-08-10T01:56:17.512Z,19.10
2022-08-10T01:58:47.865Z,19.10
2022-08-10T02:01:21.319Z,19.10
2022-08-10T02:04:04.928Z,19.10
2022-08-10T02:06:38.815Z,19.00
2022-08-10T02:09:09.198Z,19.00
2022-08-10T02:12:05.572Z,19.00
2022-08-10T02:14:33.224Z,19.00
2022-08-10T02:17:07.981Z,18.90
2022-08-10T02:19:40.302Z,18.90
2022-08-10T02:22:36.112Z,18.90
2022-08-10T02:25:03.336Z,18.80
2022-08-10T02:27:33.502Z,18.80
2022-08-10T02:30:02.291Z,18.70
2022-08-10T02:32:38.653Z,18.70
2022-08-10T02:35:22.466Z,18.60
2022-08-10T02:37:55.982Z,18.50
2022-08-10T02:45:16.174Z,18.50
2022-08-10T02:45:22.799Z,18.50
2022-08-10T02:46:32.414Z,18.50
2022-08-10T02:49:05.087Z,18.50
2022-08-10T02:52:07.615Z,18.50
2022-08-10T02:54:43.230Z,18.40
2022-08-10T02:57:19.769Z,18.40
2022-08-10T02:59:52.476Z,18.40
2022-08-10T03:02:27.444Z,18.30
2022-08-10T03:05:04.902Z,18.30
2022-08-10T03:07:43.495Z,18.20
2022-08-10T03:10:17.778Z,18.20
2022-08-10T03:12:51.473Z,18.10
2022-08-10T03:15:22.383Z,18.10
2022-08-10T03:17:58.280Z,18.10
2022-08-10T03:20:38.177Z,18.00
2022-08-10T03:23:13.741Z,17.90
2022-08-10T03:25:53.263Z,17.90
2022-08-10T03:28:23.827Z,17.80
2022-08-10T03:30:52.953Z,17.70
2022-08-10T03:33:23.325Z,17.70
2022-08-10T03:36:43.726Z,17.60
2022-08-10T03:38:44.521Z,17.50
2022-08-10T03:41:16.217Z,17.40
2022-08-10T03:43:46.200Z,17.40
2022-08-10T03:46:17.516Z,17.30
2022-08-10T03:48:49.219Z,17.20
2022-08-10T03:51:21.511Z,17.20
2022-08-10T03:54:04.840Z,17.10
2022-08-10T03:56:37.355Z,17.00
2022-08-10T03:59:07.680Z,16.90
2022-08-10T04:02:43.271Z,16.80
2022-08-10T04:04:26.053Z,16.80
2022-08-10T04:06:58.509Z,16.70
2022-08-10T04:09:53.380Z,16.60
2022-08-10T04:12:23.329Z,16.60
2022-08-10T04:14:53.326Z,16.50
2022-08-10T04:18:02.707Z,16.40
2022-08-10T04:20:20.338Z,16.40
2022-08-10T04:22:53.699Z,16.30
2022-08-10T04:25:24.146Z,16.30
2022-08-10T04:27:53.890Z,16.30
2022-08-10T04:30:22.474Z,16.20
2022-08-10T04:33:04.078Z,16.20
2022-08-10T04:35:40.305Z,16.30
2022-08-10T04:38:12.840Z,16.30
2022-08-10T04:40:45.495Z,16.30
2022-08-10T04:43:30.765Z,16.30
2022-08-10T04:45:59.422Z,16.40
2022-08-10T04:48:41.075Z,16.40
2022-08-10T04:51:17.655Z,16.40
2022-08-10T04:54:03.923Z,16.50
2022-08-10T04:56:37.868Z,16.50
2022-08-10T04:59:07.787Z,16.50
2022-08-10T05:02:21.555Z,16.50
2022-08-10T05:04:36.731Z,16.60
2022-08-10T05:07:09.436Z,16.60
2022-08-10T05:10:02.555Z,16.70
2022-08-10T05:12:29.735Z,16.80
2022-08-10T05:14:58.047Z,16.90
2022-08-10T05:17:26.346Z,16.90
2022-08-10T05:20:04.455Z,17.00
2022-08-10T05:22:40.254Z,17.10
2022-08-10T05:25:13.544Z,17.20
2022-08-10T05:27:43.374Z,17.40
2022-08-10T05:30:16.794Z,17.50
2022-08-10T05:32:56.058Z,17.60
2022-08-10T05:35:28.040Z,17.70
2022-08-10T05:38:11.722Z,17.90
2022-08-10T05:40:46.990Z,18.00
2022-08-10T05:43:19.345Z,18.20
2022-08-10T05:46:17.900Z,18.30
2022-08-10T05:48:57.297Z,18.40
2022-08-10T05:51:27.364Z,18.60
2022-08-10T05:54:00.823Z,18.80
2022-08-10T05:56:56.491Z,19.00
2022-08-10T06:00:11.346Z,19.20
2022-08-10T06:02:30.876Z,19.30
2022-08-10T06:05:09.134Z,19.50
2022-08-10T06:07:42.532Z,19.70
2022-08-10T06:10:31.182Z,19.90
2022-08-10T06:13:29.727Z,20.10
2022-08-10T06:16:04.289Z,20.30
2022-08-10T06:18:33.503Z,20.50
2022-08-10T06:21:01.880Z,20.60
2022-08-10T06:23:32.007Z,20.80
2022-08-10T06:26:11.038Z,21.00
2022-08-10T06:28:58.236Z,21.10
2022-08-10T06:31:46.667Z,21.30
2022-08-10T06:34:22.456Z,21.40
2022-08-10T06:36:52.813Z,21.60
2022-08-10T06:39:37.801Z,21.80
2022-08-10T06:42:18.018Z,21.90
2022-08-10T06:44:59.272Z,22.00
2022-08-10T06:47:34.235Z,22.20
2022-08-10T06:50:12.521Z,22.30
2022-08-10T06:52:42.943Z,22.40
2022-08-10T06:55:16.868Z,22.50
2022-08-10T06:58:00.182Z,22.70
2022-08-10T07:00:33.891Z,22.80
2022-08-10T07:03:13.764Z,23.00
2022-08-10T07:05:51.212Z,23.10
2022-08-10T07:08:22.804Z,23.30
2022-08-10T07:10:53.592Z,23.40
2022-08-10T07:14:17.034Z,23.60
2022-08-10T07:16:14.491Z,23.70
2022-08-10T07:18:46.057Z,23.90
2022-08-10T07:21:15.881Z,24.00
2022-08-10T07:23:58.774Z,24.10
2022-08-10T07:26:30.354Z,24.30
2022-08-10T07:28:59.780Z,24.40
2022-08-10T07:31:54.861Z,24.60
2022-08-10T07:34:29.372Z,24.70
2022-08-10T07:37:03.861Z,24.90
2022-08-10T07:40:02.798Z,25.00
2022-08-10T07:42:40.892Z,25.10
2022-08-10T07:45:13.717Z,25.20
2022-08-10T07:47:55.048Z,25.30
2022-08-10T07:50:26.785Z,25.30
2022-08-10T07:53:02.469Z,25.40
2022-08-10T07:56:02.059Z,25.60
2022-08-10T07:58:31.401Z,25.80
2022-08-10T08:01:02.761Z,26.00
2022-08-10T08:03:39.056Z,26.10
2022-08-10T08:06:12.240Z,26.20
2022-08-10T08:08:46.705Z,26.30
2022-08-10T08:11:26.147Z,26.40
2022-08-10T08:13:57.185Z,26.60
2022-08-10T08:16:27.332Z,27.00
2022-08-10T08:24:09.318Z,27.20
2022-08-10T08:24:45.999Z,27.40
2022-08-10T08:27:19.562Z,27.70
2022-08-10T08:29:50.922Z,27.90
2022-08-10T08:32:22.760Z,28.20
2022-08-10T08:35:01.217Z,28.40
2022-08-10T08:38:30.540Z,28.70
2022-08-10T08:40:33.147Z,29.10
2022-08-10T08:43:51.501Z,29.60
2022-08-10T08:46:59.225Z,29.80
2022-08-10T08:50:18.436Z,30.10
2022-08-10T08:53:01.043Z,30.20
2022-08-10T08:56:04.702Z,30.90
2022-08-10T08:58:53.068Z,31.40
2022-08-10T09:01:42.099Z,31.90
2022-08-10T09:04:38.965Z,32.30
2022-08-10T09:07:59.259Z,32.20
2022-08-10T09:10:40.021Z,32.30
2022-08-10T09:13:18.025Z,32.70
2022-08-10T09:16:00.445Z,33.00
2022-08-10T09:18:41.262Z,33.20
2022-08-10T09:21:19.231Z,33.50
2022-08-10T09:24:04.661Z,33.80
2022-08-10T09:26:50.490Z,34.30
2022-08-10T09:29:26.453Z,34.40
2022-08-10T09:36:14.076Z,34.50
2022-08-10T09:36:22.618Z,34.70
2022-08-10T09:38:11.890Z,34.70
2022-08-10T09:41:00.265Z,35.00
2022-08-10T09:43:52.021Z,35.00
2022-08-10T09:46:43.441Z,35.30
2022-08-10T09:49:22.429Z,35.60
2022-08-10T09:52:10.990Z,35.80
2022-08-10T09:54:54.924Z,35.90
2022-08-10T09:57:43.986Z,35.70
2022-08-10T10:00:20.111Z,36.30
2022-08-10T10:03:02.995Z,36.70
2022-08-10T10:05:51.264Z,36.90
2022-08-10T10:08:29.585Z,36.80
2022-08-10T10:11:07.904Z,37.10
2022-08-10T10:16:50.643Z,37.20
2022-08-10T10:19:45.099Z,37.20
2022-08-10T10:22:43.855Z,37.00
2022-08-10T10:25:24.860Z,37.50
2022-08-10T10:28:43.834Z,37.90
2022-08-10T10:31:29.362Z,38.00
2022-08-10T10:34:10.018Z,37.90
2022-08-10T10:36:41.557Z,37.90
2022-08-10T10:39:13.998Z,38.00
2022-08-10T10:42:03.625Z,38.20
2022-08-10T10:44:49.689Z,38.10
2022-08-10T10:47:46.333Z,38.40
2022-08-10T10:50:21.042Z,38.90
2022-08-10T10:52:59.568Z,38.70
2022-08-10T10:56:15.284Z,38.30
2022-08-10T10:58:44.372Z,38.20
2022-08-10T11:01:36.597Z,37.80
2022-08-10T11:04:22.100Z,37.60
2022-08-10T11:07:02.999Z,38.00
2022-08-10T11:10:09.278Z,38.20
2022-08-10T11:12:35.301Z,38.90
2022-08-10T11:15:17.021Z,39.40
2022-08-10T11:17:52.749Z,39.40
2022-08-10T11:20:33.090Z,38.90
2022-08-10T11:23:17.719Z,39.30
2022-08-10T11:25:54.402Z,39.30
2022-08-10T11:28:36.938Z,39.20
2022-08-10T11:31:13.952Z,39.00
2022-08-10T11:34:11.350Z,39.30
2022-08-10T11:36:50.355Z,39.30
2022-08-10T11:39:29.856Z,39.10
2022-08-10T11:42:06.721Z,39.00
2022-08-10T11:44:49.211Z,39.30
2022-08-10T11:47:21.759Z,39.50
2022-08-10T11:49:56.813Z,40.00
2022-08-10T11:52:38.076Z,40.10
2022-08-10T11:55:14.879Z,40.10
2022-08-10T11:57:53.319Z,39.00
2022-08-10T12:00:23.078Z,39.30
2022-08-10T12:02:55.380Z,39.20
2022-08-10T12:05:52.113Z,39.60
2022-08-10T12:10:05.837Z,39.80
2022-08-10T12:11:12.667Z,39.10
2022-08-10T12:14:20.377Z,39.30
2022-08-10T12:16:56.464Z,39.00
2022-08-10T12:19:59.377Z,39.00
2022-08-10T12:22:24.887Z,39.50
2022-08-10T12:24:59.934Z,39.20
2022-08-10T12:27:38.662Z,39.40
2022-08-10T12:30:09.653Z,39.50
2022-08-10T12:32:46.856Z,39.60
2022-08-10T12:35:26.211Z,39.60
2022-08-10T12:38:06.990Z,39.60
2022-08-10T12:40:44.484Z,39.80
2022-08-10T12:44:04.592Z,40.50
2022-08-10T12:46:15.777Z,40.10
2022-08-10T12:48:55.863Z,39.00
2022-08-10T12:51:30.300Z,39.60
2022-08-10T12:54:08.762Z,39.20
2022-08-10T12:56:43.671Z,38.70
2022-08-10T12:59:13.285Z,38.70
2022-08-10T13:02:06.850Z,39.00
2022-08-10T13:04:34.849Z,38.60
2022-08-10T13:07:06.289Z,38.50
2022-08-10T13:09:55.561Z,38.80
2022-08-10T13:12:37.410Z,38.90
2022-08-10T13:15:25.304Z,38.60
2022-08-10T13:18:18.363Z,38.90
2022-08-10T13:20:57.276Z,38.70
2022-08-10T13:23:29.940Z,39.00
2022-08-10T13:26:04.295Z,38.60
2022-08-10T13:28:45.931Z,38.60
2022-08-10T13:31:20.145Z,38.40
2022-08-10T13:34:40.260Z,38.50
2022-08-10T13:36:43.882Z,38.60
2022-08-10T13:39:15.210Z,38.70
2022-08-10T13:41:47.513Z,38.70
2022-08-10T13:44:29.828Z,38.60
2022-08-10T13:46:59.047Z,38.50
2022-08-10T13:49:44.705Z,38.30
2022-08-10T13:52:20.438Z,38.30
2022-08-10T13:55:05.365Z,38.50
2022-08-10T13:57:36.773Z,38.30
2022-08-10T14:00:34.532Z,38.20
2022-08-10T14:03:15.625Z,38.10
2022-08-10T14:05:52.386Z,38.00
2022-08-10T14:08:26.725Z,38.10
2022-08-10T14:11:11.886Z,38.00
2022-08-10T14:13:47.458Z,37.60
2022-08-10T14:16:22.382Z,37.40
2022-08-10T14:18:54.666Z,37.00
2022-08-10T14:21:47.631Z,36.80
2022-08-10T14:24:25.887Z,36.60
2022-08-10T14:27:05.560Z,36.30
2022-08-10T14:29:46.226Z,35.60
2022-08-10T14:32:20.659Z,35.20
2022-08-10T14:36:15.578Z,34.80
2022-08-10T14:37:44.372Z,34.60
2022-08-10T14:40:17.553Z,34.10
2022-08-10T14:42:50.468Z,33.80
2022-08-10T14:45:29.017Z,33.50
2022-08-10T14:48:07.839Z,33.50
2022-08-10T14:50:55.171Z,33.20
2022-08-10T14:53:27.497Z,33.20
2022-08-10T14:56:00.986Z,33.00
2022-08-10T14:58:34.689Z,33.00
2022-08-10T15:01:05.435Z,33.00
2022-08-10T15:04:01.548Z,32.80
2022-08-10T15:06:33.593Z,32.60
2022-08-10T15:09:12.190Z,32.30
2022-08-10T15:12:13.816Z,32.20
2022-08-10T15:14:42.945Z,32.00
2022-08-10T15:17:15.412Z,31.90
2022-08-10T15:20:02.380Z,31.90
2022-08-10T15:22:38.682Z,31.90
2022-08-10T15:25:18.045Z,31.70
2022-08-10T15:27:54.786Z,31.60
2022-08-10T15:30:30.991Z,31.70
2022-08-10T15:33:21.567Z,31.60
2022-08-10T15:37:36.078Z,31.50
2022-08-10T15:40:23.841Z,31.50
2022-08-10T15:42:35.962Z,31.50
2022-08-10T15:45:05.436Z,31.50
2022-08-10T15:47:46.002Z,31.40
2022-08-10T15:50:19.679Z,31.40
2022-08-10T15:53:01.642Z,31.40
2022-08-10T15:55:42.661Z,31.30
2022-08-10T15:58:30.283Z,31.20
2022-08-10T16:02:14.907Z,31.10
2022-08-10T16:04:08.709Z,31.10
2022-08-10T16:06:43.697Z,31.00
2022-08-10T16:10:23.637Z,30.90
2022-08-10T16:12:29.190Z,30.80
2022-08-10T16:15:07.200Z,30.80
2022-08-10T16:17:55.548Z,30.60
2022-08-10T16:20:31.356Z,30.60
2022-08-10T16:23:05.499Z,30.50
2022-08-10T16:25:48.427Z,30.40
2022-08-10T16:28:23.992Z,30.30
2022-08-10T16:30:56.523Z,30.30
2022-08-10T16:33:53.881Z,30.20
2022-08-10T16:36:20.630Z,30.10
2022-08-10T16:38:51.775Z,30.00
2022-08-10T16:42:05.314Z,29.90
2022-08-10T16:44:18.050Z,29.80
2022-08-10T16:46:47.589Z,29.80
2022-08-10T16:49:18.006Z,29.70
2022-08-10T16:51:49.009Z,29.70
2022-08-10T16:54:26.847Z,29.70
2022-08-10T16:57:02.456Z,29.60
2022-08-10T16:59:35.429Z,29.50
2022-08-10T17:02:07.128Z,29.40
2022-08-10T17:04:40.504Z,29.40
2022-08-10T17:07:14.426Z,29.40
2022-08-10T17:09:49.175Z,29.20
2022-08-10T17:12:27.072Z,29.10
2022-08-10T17:15:09.129Z,29.00
2022-08-10T17:17:45.791Z,29.00
2022-08-10T17:20:31.973Z,28.90
2022-08-10T17:23:06.465Z,28.80
2022-08-10T17:25:46.404Z,28.80
2022-08-10T17:28:34.673Z,28.60
2022-08-10T17:31:39.725Z,28.60
2022-08-10T17:34:03.757Z,28.40
2022-08-10T17:36:37.535Z,28.40
2022-08-10T17:39:09.961Z,28.30
2022-08-10T17:41:38.994Z,28.20
2022-08-10T17:44:11.260Z,28.10
2022-08-10T17:46:41.851Z,28.10
2022-08-10T17:49:13.048Z,28.00
2022-08-10T17:51:43.678Z,27.90
2022-08-10T17:54:25.534Z,27.90
2022-08-10T17:56:58.808Z,27.80
2022-08-10T17:59:31.822Z,27.60
2022-08-10T18:02:16.522Z,27.60
2022-08-10T18:04:54.438Z,27.50
2022-08-10T18:07:32.745Z,27.30
2022-08-10T18:10:05.178Z,27.20
2022-08-10T18:12:42.124Z,27.20
2022-08-10T18:15:17.393Z,27.10
2022-08-10T18:17:51.057Z,26.90
2022-08-10T18:20:27.763Z,26.80
2022-08-10T18:22:58.491Z,26.70
2022-08-10T18:25:32.023Z,26.60
2022-08-10T18:28:05.703Z,26.60
2022-08-10T18:30:48.087Z,26.50
2022-08-10T18:33:19.935Z,26.40
2022-08-10T18:35:49.322Z,26.30
2022-08-10T18:38:19.048Z,26.20
2022-08-10T18:40:54.476Z,26.10
2022-08-10T18:44:06.713Z,25.90
2022-08-10T18:46:24.835Z,25.90
2022-08-10T18:48:59.196Z,25.70
2022-08-10T18:51:35.745Z,25.60
2022-08-10T18:54:31.472Z,25.50
2022-08-10T18:57:24.266Z,25.40
2022-08-10T19:00:10.838Z,25.30
2022-08-10T19:03:04.194Z,25.20
2022-08-10T19:05:55.442Z,25.10
2022-08-10T19:09:09.637Z,25.00
2022-08-10T19:12:31.155Z,24.80
2022-08-10T19:15:14.586Z,24.60
2022-08-10T19:18:06.384Z,24.50
2022-08-10T19:20:43.118Z,24.40
2022-08-10T19:23:26.475Z,24.30
2022-08-10T19:26:43.393Z,24.10
2022-08-10T19:29:00.226Z,24.00
2022-08-10T19:31:44.260Z,23.90
2022-08-10T19:34:29.748Z,23.80
2022-08-10T19:37:10.214Z,23.60
2022-08-10T19:40:04.334Z,23.50
2022-08-10T19:42:47.058Z,23.40
2022-08-10T19:45:56.039Z,23.30
2022-08-10T19:48:28.206Z,23.20
2022-08-10T19:51:07.696Z,23.10
2022-08-10T19:53:49.149Z,22.90
2022-08-10T19:56:34.106Z,22.80
2022-08-10T19:59:11.617Z,22.70
2022-08-10T20:01:55.024Z,22.60
2022-08-10T20:04:32.065Z,22.50
2022-08-10T20:07:13.668Z,22.40
2022-08-10T20:09:48.642Z,22.30
2022-08-10T20:12:27.159Z,22.30
2022-08-10T20:15:05.444Z,22.20
2022-08-10T20:17:51.574Z,22.10
2022-08-10T20:20:31.630Z,22.10
2022-08-10T20:23:13.867Z,22.00
2022-08-10T20:25:48.416Z,21.90
2022-08-10T20:28:22.338Z,21.80
2022-08-10T20:30:55.450Z,21.70
2022-08-10T20:33:34.531Z,21.60
2022-08-10T20:36:12.818Z,21.50
2022-08-10T20:38:52.392Z,21.40
2022-08-10T20:41:31.983Z,21.30
2022-08-10T20:44:24.702Z,21.20
2022-08-10T20:47:04.179Z,21.10
2022-08-10T20:49:42.640Z,21.00
2022-08-10T20:52:12.418Z,20.90
2022-08-10T20:54:51.045Z,20.80
2022-08-10T20:58:04.468Z,20.70
2022-08-10T21:00:34.510Z,20.60
2022-08-10T21:03:31.735Z,20.50
2022-08-10T21:06:42.225Z,20.50
2022-08-10T21:09:38.390Z,20.30
2022-08-10T21:12:34.597Z,20.20
2022-08-10T21:15:25.078Z,20.10
2022-08-10T21:18:20.590Z,19.90
2022-08-10T21:20:59.742Z,19.80
2022-08-10T21:23:33.042Z,19.60
2022-08-10T21:26:10.370Z,19.60
2022-08-10T21:28:58.646Z,19.60
2022-08-10T21:31:44.500Z,19.50
2022-08-10T21:34:33.104Z,19.50
2022-08-10T21:37:09.956Z,19.40
2022-08-10T21:39:58.250Z,19.40
2022-08-10T21:43:00.178Z,19.30
2022-08-10T21:46:05.802Z,19.30
2022-08-10T21:49:03.092Z,19.20
2022-08-10T21:52:01.499Z,19.10
2022-08-10T21:55:01.043Z,19.10
2022-08-10T21:58:00.563Z,19.10
2022-08-10T22:00:49.467Z,19.10
2022-08-10T22:03:40.048Z,19.00
2022-08-10T22:06:28.479Z,18.90
2022-08-10T22:09:20.126Z,18.80
2022-08-10T22:12:30.963Z,18.70
2022-08-10T22:16:03.975Z,18.60
2022-08-10T22:18:37.087Z,18.40
2022-08-10T22:21:45.901Z,18.30
2022-08-10T22:24:55.515Z,18.20
2022-08-10T22:27:51.701Z,18.20
2022-08-10T22:30:41.842Z,18.10
2022-08-10T22:33:49.340Z,18.00
2022-08-10T22:36:55.556Z,17.90
2022-08-10T22:40:12.023Z,17.90
2022-08-10T22:43:10.484Z,17.80
2022-08-10T22:46:05.447Z,17.80
2022-08-10T22:49:00.954Z,17.70
2022-08-10T22:51:44.496Z,17.70
2022-08-10T22:54:38.902Z,17.60
2022-08-10T22:57:25.189Z,17.50
2022-08-10T22:59:53.827Z,17.50
2022-08-10T23:02:31.787Z,17.40
2022-08-10T23:05:13.336Z,17.30
2022-08-10T23:07:52.852Z,17.30
2022-08-10T23:10:27.283Z,17.20
2022-08-10T23:13:04.125Z,17.20
2022-08-10T23:15:55.515Z,17.10
2022-08-10T23:18:51.328Z,17.10
2022-08-10T23:21:22.867Z,17.00
2022-08-10T23:23:54.112Z,16.90
2022-08-10T23:26:27.894Z,16.90
2022-08-10T23:29:05.368Z,16.80
2022-08-10T23:32:01.211Z,16.80
2022-08-10T23:34:33.182Z,16.70
2022-08-10T23:37:05.437Z,16.70
2022-08-10T23:39:36.531Z,16.70
2022-08-10T23:42:09.786Z,16.70
2022-08-10T23:44:45.185Z,16.70
2022-08-10T23:47:18.720Z,16.70
2022-08-10T23:49:51.934Z,16.70
2022-08-10T23:52:25.293Z,16.70
2022-08-10T23:54:59.175Z,16.70
2022-08-10T23:57:29.436Z,16.70
